sensor_id;sensor_type;location;lat;lon;timestamp;P1;durP1;ratioP1;P2;durP2;ratioP2
36137;SDS011;67787;50.074;21.904;2023-04-10T00:01:19;51.30;;;33.60;;
36137;SDS011;67787;50.074;21.904;2023-04-10T00:03:47;56.70;;;35.20;;
36137;SDS011;67787;50.074;21.904;2023-04-10T00:06:16;54.30;;;35.80;;
36137;SDS011;67787;50.074;21.904;2023-04-10T00:08:43;58.50;;;36.30;;
36137;SDS011;67787;50.074;21.904;2023-04-10T00:11:11;57.30;;;35.70;;
36137;SDS011;67787;50.074;21.904;2023-04-10T00:13:40;57.30;;;35.20;;
36137;SDS011;67787;50.074;21.904;2023-04-10T00:16:08;53.50;;;33.80;;
36137;SDS011;67787;50.074;21.904;2023-04-10T00:18:36;55.80;;;35.30;;
36137;SDS011;67787;50.074;21.904;2023-04-10T00:21:04;52.00;;;32.40;;
36137;SDS011;67787;50.074;21.904;2023-04-10T00:23:32;53.40;;;33.50;;
36137;SDS011;67787;50.074;21.904;2023-04-10T00:26:01;56.10;;;34.80;;
36137;SDS011;67787;50.074;21.904;2023-04-10T00:28:30;55.30;;;35.00;;
36137;SDS011;67787;50.074;21.904;2023-04-10T00:30:58;55.20;;;34.60;;
36137;SDS011;67787;50.074;21.904;2023-04-10T00:33:26;52.00;;;32.80;;
36137;SDS011;67787;50.074;21.904;2023-04-10T00:35:53;58.10;;;36.70;;
36137;SDS011;67787;50.074;21.904;2023-04-10T00:38:22;53.20;;;34.40;;
36137;SDS011;67787;50.074;21.904;2023-04-10T00:40:49;54.30;;;35.90;;
36137;SDS011;67787;50.074;21.904;2023-04-10T00:43:18;55.30;;;34.80;;
36137;SDS011;67787;50.074;21.904;2023-04-10T00:45:46;52.40;;;33.80;;
36137;SDS011;67787;50.074;21.904;2023-04-10T00:48:17;54.60;;;34.50;;
36137;SDS011;67787;50.074;21.904;2023-04-10T00:50:45;56.10;;;36.10;;
36137;SDS011;67787;50.074;21.904;2023-04-10T00:53:13;52.30;;;33.40;;
36137;SDS011;67787;50.074;21.904;2023-04-10T00:55:43;55.00;;;34.10;;
36137;SDS011;67787;50.074;21.904;2023-04-10T00:58:13;57.90;;;35.90;;
36137;SDS011;67787;50.074;21.904;2023-04-10T01:00:41;53.80;;;34.90;;
36137;SDS011;67787;50.074;21.904;2023-04-10T01:03:12;52.70;;;34.60;;
36137;SDS011;67787;50.074;21.904;2023-04-10T01:05:46;56.70;;;35.90;;
36137;SDS011;67787;50.074;21.904;2023-04-10T01:11:20;57.10;;;36.40;;
36137;SDS011;67787;50.074;21.904;2023-04-10T01:14:01;61.40;;;38.20;;
36137;SDS011;67787;50.074;21.904;2023-04-10T01:16:35;57.80;;;36.00;;
36137;SDS011;67787;50.074;21.904;2023-04-10T01:22:19;59.60;;;35.80;;
36137;SDS011;67787;50.074;21.904;2023-04-10T01:27:43;60.20;;;36.30;;
36137;SDS011;67787;50.074;21.904;2023-04-10T01:30:20;58.60;;;36.80;;
36137;SDS011;67787;50.074;21.904;2023-04-10T01:32:50;58.80;;;36.60;;
36137;SDS011;67787;50.074;21.904;2023-04-10T01:35:22;60.80;;;36.40;;
36137;SDS011;67787;50.074;21.904;2023-04-10T01:37:52;58.10;;;37.30;;
36137;SDS011;67787;50.074;21.904;2023-04-10T01:40:21;64.40;;;38.00;;
36137;SDS011;67787;50.074;21.904;2023-04-10T01:42:54;64.00;;;39.50;;
36137;SDS011;67787;50.074;21.904;2023-04-10T01:45:24;62.60;;;42.90;;
36137;SDS011;67787;50.074;21.904;2023-04-10T01:47:55;65.00;;;42.90;;
36137;SDS011;67787;50.074;21.904;2023-04-10T01:50:23;62.60;;;42.10;;
36137;SDS011;67787;50.074;21.904;2023-04-10T01:52:54;59.40;;;38.90;;
36137;SDS011;67787;50.074;21.904;2023-04-10T01:55:24;63.20;;;40.50;;
36137;SDS011;67787;50.074;21.904;2023-04-10T01:57:54;62.50;;;39.00;;
36137;SDS011;67787;50.074;21.904;2023-04-10T02:00:22;60.40;;;40.50;;
36137;SDS011;67787;50.074;21.904;2023-04-10T02:02:50;65.60;;;40.60;;
36137;SDS011;67787;50.074;21.904;2023-04-10T02:05:18;66.50;;;42.40;;
36137;SDS011;67787;50.074;21.904;2023-04-10T02:07:51;64.50;;;43.20;;
36137;SDS011;67787;50.074;21.904;2023-04-10T02:10:29;69.20;;;45.40;;
36137;SDS011;67787;50.074;21.904;2023-04-10T02:13:06;65.10;;;42.80;;
36137;SDS011;67787;50.074;21.904;2023-04-10T02:15:38;63.10;;;39.80;;
36137;SDS011;67787;50.074;21.904;2023-04-10T02:18:10;61.00;;;38.90;;
36137;SDS011;67787;50.074;21.904;2023-04-10T02:20:42;62.70;;;39.60;;
36137;SDS011;67787;50.074;21.904;2023-04-10T02:23:11;64.70;;;41.40;;
36137;SDS011;67787;50.074;21.904;2023-04-10T02:25:40;64.80;;;40.60;;
36137;SDS011;67787;50.074;21.904;2023-04-10T02:28:11;63.90;;;40.80;;
36137;SDS011;67787;50.074;21.904;2023-04-10T02:30:39;63.70;;;42.30;;
36137;SDS011;67787;50.074;21.904;2023-04-10T02:33:07;65.30;;;41.00;;
36137;SDS011;67787;50.074;21.904;2023-04-10T02:35:35;66.40;;;42.00;;
36137;SDS011;67787;50.074;21.904;2023-04-10T02:38:04;64.00;;;40.90;;
36137;SDS011;67787;50.074;21.904;2023-04-10T02:40:32;63.90;;;41.00;;
36137;SDS011;67787;50.074;21.904;2023-04-10T02:43:00;61.20;;;38.40;;
36137;SDS011;67787;50.074;21.904;2023-04-10T02:45:28;61.80;;;40.00;;
36137;SDS011;67787;50.074;21.904;2023-04-10T02:47:56;64.30;;;38.70;;
36137;SDS011;67787;50.074;21.904;2023-04-10T02:50:24;62.70;;;39.30;;
36137;SDS011;67787;50.074;21.904;2023-04-10T02:52:56;60.40;;;38.80;;
36137;SDS011;67787;50.074;21.904;2023-04-10T02:55:23;65.50;;;40.50;;
36137;SDS011;67787;50.074;21.904;2023-04-10T02:57:52;66.40;;;42.30;;
36137;SDS011;67787;50.074;21.904;2023-04-10T03:00:20;67.00;;;42.50;;
36137;SDS011;67787;50.074;21.904;2023-04-10T03:02:49;64.10;;;40.50;;
36137;SDS011;67787;50.074;21.904;2023-04-10T03:05:18;64.60;;;40.90;;
36137;SDS011;67787;50.074;21.904;2023-04-10T03:07:46;66.40;;;41.80;;
36137;SDS011;67787;50.074;21.904;2023-04-10T03:10:14;65.90;;;41.60;;
36137;SDS011;67787;50.074;21.904;2023-04-10T03:12:42;65.20;;;42.90;;
36137;SDS011;67787;50.074;21.904;2023-04-10T03:15:10;65.80;;;42.90;;
36137;SDS011;67787;50.074;21.904;2023-04-10T03:17:39;67.60;;;43.90;;
36137;SDS011;67787;50.074;21.904;2023-04-10T03:20:07;67.10;;;42.70;;
36137;SDS011;67787;50.074;21.904;2023-04-10T03:22:36;65.20;;;42.00;;
36137;SDS011;67787;50.074;21.904;2023-04-10T03:25:04;69.50;;;44.10;;
36137;SDS011;67787;50.074;21.904;2023-04-10T03:27:33;68.10;;;44.60;;
36137;SDS011;67787;50.074;21.904;2023-04-10T03:30:01;68.20;;;43.20;;
36137;SDS011;67787;50.074;21.904;2023-04-10T03:32:29;63.60;;;43.50;;
36137;SDS011;67787;50.074;21.904;2023-04-10T03:34:57;71.40;;;46.30;;
36137;SDS011;67787;50.074;21.904;2023-04-10T03:37:25;70.90;;;44.50;;
36137;SDS011;67787;50.074;21.904;2023-04-10T03:39:54;69.30;;;44.10;;
36137;SDS011;67787;50.074;21.904;2023-04-10T03:42:22;69.80;;;45.40;;
36137;SDS011;67787;50.074;21.904;2023-04-10T03:44:50;68.80;;;45.60;;
36137;SDS011;67787;50.074;21.904;2023-04-10T03:47:18;67.90;;;44.30;;
36137;SDS011;67787;50.074;21.904;2023-04-10T03:49:46;75.40;;;47.30;;
36137;SDS011;67787;50.074;21.904;2023-04-10T03:52:14;71.20;;;45.80;;
36137;SDS011;67787;50.074;21.904;2023-04-10T03:54:42;69.30;;;45.10;;
36137;SDS011;67787;50.074;21.904;2023-04-10T03:57:10;75.00;;;48.20;;
36137;SDS011;67787;50.074;21.904;2023-04-10T03:59:38;72.50;;;46.90;;
36137;SDS011;67787;50.074;21.904;2023-04-10T04:02:06;72.80;;;46.60;;
36137;SDS011;67787;50.074;21.904;2023-04-10T04:04:34;68.40;;;46.50;;
36137;SDS011;67787;50.074;21.904;2023-04-10T04:07:02;73.70;;;47.50;;
36137;SDS011;67787;50.074;21.904;2023-04-10T04:09:30;74.30;;;50.00;;
36137;SDS011;67787;50.074;21.904;2023-04-10T04:11:58;79.30;;;55.00;;
36137;SDS011;67787;50.074;21.904;2023-04-10T04:14:26;73.00;;;47.90;;
36137;SDS011;67787;50.074;21.904;2023-04-10T04:16:53;71.90;;;47.30;;
36137;SDS011;67787;50.074;21.904;2023-04-10T04:19:21;73.00;;;47.50;;
36137;SDS011;67787;50.074;21.904;2023-04-10T04:21:49;73.90;;;46.10;;
36137;SDS011;67787;50.074;21.904;2023-04-10T04:24:17;85.10;;;46.80;;
36137;SDS011;67787;50.074;21.904;2023-04-10T04:26:46;74.90;;;47.80;;
36137;SDS011;67787;50.074;21.904;2023-04-10T04:29:13;71.80;;;47.20;;
36137;SDS011;67787;50.074;21.904;2023-04-10T04:31:42;70.60;;;44.80;;
36137;SDS011;67787;50.074;21.904;2023-04-10T04:34:09;76.90;;;50.40;;
36137;SDS011;67787;50.074;21.904;2023-04-10T04:36:37;75.20;;;47.80;;
36137;SDS011;67787;50.074;21.904;2023-04-10T04:39:06;73.20;;;48.00;;
36137;SDS011;67787;50.074;21.904;2023-04-10T04:41:34;68.40;;;44.60;;
36137;SDS011;67787;50.074;21.904;2023-04-10T04:44:03;76.60;;;47.70;;
36137;SDS011;67787;50.074;21.904;2023-04-10T04:46:31;69.90;;;45.30;;
36137;SDS011;67787;50.074;21.904;2023-04-10T04:48:59;72.00;;;48.10;;
36137;SDS011;67787;50.074;21.904;2023-04-10T04:51:27;74.10;;;48.40;;
36137;SDS011;67787;50.074;21.904;2023-04-10T04:53:57;72.10;;;45.70;;
36137;SDS011;67787;50.074;21.904;2023-04-10T04:56:26;74.40;;;46.30;;
36137;SDS011;67787;50.074;21.904;2023-04-10T04:58:54;66.20;;;43.10;;
36137;SDS011;67787;50.074;21.904;2023-04-10T05:01:22;74.20;;;47.50;;
36137;SDS011;67787;50.074;21.904;2023-04-10T05:03:50;73.60;;;48.80;;
36137;SDS011;67787;50.074;21.904;2023-04-10T05:06:18;73.40;;;48.10;;
36137;SDS011;67787;50.074;21.904;2023-04-10T05:08:46;76.20;;;48.20;;
36137;SDS011;67787;50.074;21.904;2023-04-10T05:11:16;85.60;;;55.60;;
36137;SDS011;67787;50.074;21.904;2023-04-10T05:13:44;78.10;;;49.40;;
36137;SDS011;67787;50.074;21.904;2023-04-10T05:16:12;75.40;;;49.50;;
36137;SDS011;67787;50.074;21.904;2023-04-10T05:18:40;78.00;;;50.30;;
36137;SDS011;67787;50.074;21.904;2023-04-10T05:21:08;80.50;;;53.20;;
36137;SDS011;67787;50.074;21.904;2023-04-10T05:23:36;76.80;;;47.80;;
36137;SDS011;67787;50.074;21.904;2023-04-10T05:26:05;71.90;;;47.50;;
36137;SDS011;67787;50.074;21.904;2023-04-10T05:28:33;74.10;;;47.90;;
36137;SDS011;67787;50.074;21.904;2023-04-10T05:31:01;85.30;;;54.20;;
36137;SDS011;67787;50.074;21.904;2023-04-10T05:33:29;77.50;;;49.50;;
36137;SDS011;67787;50.074;21.904;2023-04-10T05:35:57;71.90;;;46.30;;
36137;SDS011;67787;50.074;21.904;2023-04-10T05:38:25;71.80;;;47.40;;
36137;SDS011;67787;50.074;21.904;2023-04-10T05:40:53;72.30;;;49.40;;
36137;SDS011;67787;50.074;21.904;2023-04-10T05:43:21;80.10;;;57.30;;
36137;SDS011;67787;50.074;21.904;2023-04-10T05:45:49;72.70;;;47.80;;
36137;SDS011;67787;50.074;21.904;2023-04-10T05:48:17;65.90;;;43.40;;
36137;SDS011;67787;50.074;21.904;2023-04-10T05:50:45;66.60;;;46.60;;
36137;SDS011;67787;50.074;21.904;2023-04-10T05:53:13;71.10;;;48.00;;
36137;SDS011;67787;50.074;21.904;2023-04-10T05:55:42;67.20;;;44.00;;
36137;SDS011;67787;50.074;21.904;2023-04-10T05:58:10;69.00;;;46.10;;
36137;SDS011;67787;50.074;21.904;2023-04-10T06:00:38;65.10;;;43.90;;
36137;SDS011;67787;50.074;21.904;2023-04-10T06:03:05;63.50;;;41.30;;
36137;SDS011;67787;50.074;21.904;2023-04-10T06:05:33;65.10;;;42.70;;
36137;SDS011;67787;50.074;21.904;2023-04-10T06:08:01;71.30;;;49.90;;
36137;SDS011;67787;50.074;21.904;2023-04-10T06:10:31;61.30;;;41.00;;
36137;SDS011;67787;50.074;21.904;2023-04-10T06:12:59;59.60;;;40.10;;
36137;SDS011;67787;50.074;21.904;2023-04-10T06:15:27;55.90;;;39.10;;
36137;SDS011;67787;50.074;21.904;2023-04-10T06:17:55;72.60;;;47.50;;
36137;SDS011;67787;50.074;21.904;2023-04-10T06:20:23;91.60;;;53.20;;
36137;SDS011;67787;50.074;21.904;2023-04-10T06:22:52;64.40;;;41.50;;
36137;SDS011;67787;50.074;21.904;2023-04-10T06:25:21;61.60;;;38.60;;
36137;SDS011;67787;50.074;21.904;2023-04-10T06:27:49;57.30;;;38.50;;
36137;SDS011;67787;50.074;21.904;2023-04-10T06:30:17;55.60;;;36.60;;
36137;SDS011;67787;50.074;21.904;2023-04-10T06:32:45;58.80;;;37.80;;
36137;SDS011;67787;50.074;21.904;2023-04-10T06:35:13;54.70;;;39.60;;
36137;SDS011;67787;50.074;21.904;2023-04-10T06:37:41;54.80;;;38.20;;
36137;SDS011;67787;50.074;21.904;2023-04-10T06:40:10;58.90;;;41.90;;
36137;SDS011;67787;50.074;21.904;2023-04-10T06:42:41;49.00;;;34.30;;
36137;SDS011;67787;50.074;21.904;2023-04-10T06:45:08;50.50;;;34.20;;
36137;SDS011;67787;50.074;21.904;2023-04-10T06:47:36;49.30;;;32.10;;
36137;SDS011;67787;50.074;21.904;2023-04-10T06:50:04;50.70;;;32.80;;
36137;SDS011;67787;50.074;21.904;2023-04-10T06:52:33;52.90;;;34.40;;
36137;SDS011;67787;50.074;21.904;2023-04-10T06:55:01;51.30;;;33.80;;
36137;SDS011;67787;50.074;21.904;2023-04-10T06:57:29;48.50;;;32.00;;
36137;SDS011;67787;50.074;21.904;2023-04-10T06:59:57;51.70;;;33.90;;
36137;SDS011;67787;50.074;21.904;2023-04-10T07:02:25;47.70;;;32.30;;
36137;SDS011;67787;50.074;21.904;2023-04-10T07:04:53;48.30;;;35.20;;
36137;SDS011;67787;50.074;21.904;2023-04-10T07:07:23;47.20;;;30.40;;
36137;SDS011;67787;50.074;21.904;2023-04-10T07:09:52;46.40;;;29.50;;
36137;SDS011;67787;50.074;21.904;2023-04-10T07:12:20;45.30;;;27.90;;
36137;SDS011;67787;50.074;21.904;2023-04-10T07:14:49;45.70;;;29.70;;
36137;SDS011;67787;50.074;21.904;2023-04-10T07:17:17;42.70;;;28.00;;
36137;SDS011;67787;50.074;21.904;2023-04-10T07:19:45;45.00;;;28.80;;
36137;SDS011;67787;50.074;21.904;2023-04-10T07:22:13;43.20;;;26.50;;
36137;SDS011;67787;50.074;21.904;2023-04-10T07:24:42;41.40;;;26.60;;
36137;SDS011;67787;50.074;21.904;2023-04-10T07:27:10;37.80;;;23.50;;
36137;SDS011;67787;50.074;21.904;2023-04-10T07:29:39;40.20;;;25.70;;
36137;SDS011;67787;50.074;21.904;2023-04-10T07:32:10;38.70;;;25.00;;
36137;SDS011;67787;50.074;21.904;2023-04-10T07:34:39;39.80;;;26.00;;
36137;SDS011;67787;50.074;21.904;2023-04-10T07:37:08;38.20;;;25.00;;
36137;SDS011;67787;50.074;21.904;2023-04-10T07:39:37;42.00;;;27.90;;
36137;SDS011;67787;50.074;21.904;2023-04-10T07:42:05;35.20;;;23.80;;
36137;SDS011;67787;50.074;21.904;2023-04-10T07:44:33;31.10;;;19.90;;
36137;SDS011;67787;50.074;21.904;2023-04-10T07:47:01;32.50;;;18.40;;
36137;SDS011;67787;50.074;21.904;2023-04-10T07:49:30;29.30;;;17.40;;
36137;SDS011;67787;50.074;21.904;2023-04-10T07:51:58;30.00;;;16.70;;
36137;SDS011;67787;50.074;21.904;2023-04-10T07:54:26;30.60;;;17.80;;
36137;SDS011;67787;50.074;21.904;2023-04-10T07:56:58;28.90;;;17.60;;
36137;SDS011;67787;50.074;21.904;2023-04-10T07:59:29;23.90;;;14.00;;
36137;SDS011;67787;50.074;21.904;2023-04-10T08:01:56;30.10;;;15.80;;
36137;SDS011;67787;50.074;21.904;2023-04-10T08:04:24;27.00;;;14.90;;
36137;SDS011;67787;50.074;21.904;2023-04-10T08:06:53;26.30;;;13.80;;
36137;SDS011;67787;50.074;21.904;2023-04-10T08:09:22;28.10;;;15.00;;
36137;SDS011;67787;50.074;21.904;2023-04-10T08:11:49;25.50;;;12.70;;
36137;SDS011;67787;50.074;21.904;2023-04-10T08:14:17;23.80;;;13.20;;
36137;SDS011;67787;50.074;21.904;2023-04-10T08:16:45;22.30;;;11.20;;
36137;SDS011;67787;50.074;21.904;2023-04-10T08:19:13;25.60;;;13.00;;
36137;SDS011;67787;50.074;21.904;2023-04-10T08:21:41;25.50;;;12.60;;
36137;SDS011;67787;50.074;21.904;2023-04-10T08:24:10;24.00;;;12.90;;
36137;SDS011;67787;50.074;21.904;2023-04-10T08:26:38;23.20;;;11.60;;
36137;SDS011;67787;50.074;21.904;2023-04-10T08:29:13;21.80;;;11.30;;
36137;SDS011;67787;50.074;21.904;2023-04-10T08:31:41;24.10;;;10.90;;
36137;SDS011;67787;50.074;21.904;2023-04-10T08:34:09;23.40;;;11.20;;
36137;SDS011;67787;50.074;21.904;2023-04-10T08:36:38;23.20;;;10.30;;
36137;SDS011;67787;50.074;21.904;2023-04-10T08:39:05;24.10;;;10.70;;
36137;SDS011;67787;50.074;21.904;2023-04-10T08:41:36;21.20;;;9.60;;
36137;SDS011;67787;50.074;21.904;2023-04-10T08:44:07;22.30;;;10.30;;
36137;SDS011;67787;50.074;21.904;2023-04-10T08:46:36;18.50;;;8.80;;
36137;SDS011;67787;50.074;21.904;2023-04-10T08:49:14;22.60;;;8.90;;
36137;SDS011;67787;50.074;21.904;2023-04-10T08:51:48;18.70;;;8.60;;
36137;SDS011;67787;50.074;21.904;2023-04-10T08:54:24;20.20;;;8.60;;
36137;SDS011;67787;50.074;21.904;2023-04-10T08:56:55;19.20;;;8.90;;
36137;SDS011;67787;50.074;21.904;2023-04-10T08:59:25;18.60;;;8.10;;
36137;SDS011;67787;50.074;21.904;2023-04-10T09:02:00;20.90;;;8.90;;
36137;SDS011;67787;50.074;21.904;2023-04-10T09:04:29;19.10;;;9.10;;
36137;SDS011;67787;50.074;21.904;2023-04-10T09:06:59;18.00;;;8.50;;
36137;SDS011;67787;50.074;21.904;2023-04-10T09:09:27;19.30;;;8.40;;
36137;SDS011;67787;50.074;21.904;2023-04-10T09:11:59;19.80;;;8.40;;
36137;SDS011;67787;50.074;21.904;2023-04-10T09:14:29;19.90;;;8.50;;
36137;SDS011;67787;50.074;21.904;2023-04-10T09:19:39;20.10;;;8.70;;
36137;SDS011;67787;50.074;21.904;2023-04-10T09:22:08;18.70;;;7.80;;
36137;SDS011;67787;50.074;21.904;2023-04-10T09:24:41;19.90;;;8.60;;
36137;SDS011;67787;50.074;21.904;2023-04-10T09:27:10;19.00;;;8.80;;
36137;SDS011;67787;50.074;21.904;2023-04-10T09:35:10;19.90;;;8.00;;
36137;SDS011;67787;50.074;21.904;2023-04-10T09:37:40;19.40;;;8.40;;
36137;SDS011;67787;50.074;21.904;2023-04-10T09:40:21;15.70;;;6.80;;
36137;SDS011;67787;50.074;21.904;2023-04-10T09:42:51;17.00;;;7.10;;
36137;SDS011;67787;50.074;21.904;2023-04-10T09:45:23;16.00;;;7.30;;
36137;SDS011;67787;50.074;21.904;2023-04-10T09:48:00;19.50;;;7.50;;
36137;SDS011;67787;50.074;21.904;2023-04-10T09:50:38;18.00;;;7.60;;
36137;SDS011;67787;50.074;21.904;2023-04-10T09:53:08;13.70;;;6.60;;
36137;SDS011;67787;50.074;21.904;2023-04-10T09:55:39;17.80;;;7.50;;
36137;SDS011;67787;50.074;21.904;2023-04-10T09:58:09;19.00;;;8.30;;
36137;SDS011;67787;50.074;21.904;2023-04-10T10:00:45;18.90;;;8.50;;
36137;SDS011;67787;50.074;21.904;2023-04-10T10:03:15;17.70;;;7.70;;
36137;SDS011;67787;50.074;21.904;2023-04-10T10:05:50;17.50;;;8.30;;
36137;SDS011;67787;50.074;21.904;2023-04-10T10:08:20;16.80;;;7.40;;
36137;SDS011;67787;50.074;21.904;2023-04-10T10:10:49;19.50;;;7.90;;
36137;SDS011;67787;50.074;21.904;2023-04-10T10:18:42;16.80;;;6.60;;
36137;SDS011;67787;50.074;21.904;2023-04-10T10:21:14;18.30;;;7.00;;
36137;SDS011;67787;50.074;21.904;2023-04-10T10:23:43;16.60;;;7.50;;
36137;SDS011;67787;50.074;21.904;2023-04-10T10:26:12;18.00;;;7.10;;
36137;SDS011;67787;50.074;21.904;2023-04-10T10:28:41;14.00;;;6.30;;
36137;SDS011;67787;50.074;21.904;2023-04-10T10:31:10;16.10;;;6.50;;
36137;SDS011;67787;50.074;21.904;2023-04-10T10:33:39;12.60;;;6.70;;
36137;SDS011;67787;50.074;21.904;2023-04-10T10:36:08;19.50;;;6.90;;
36137;SDS011;67787;50.074;21.904;2023-04-10T10:38:39;15.20;;;6.00;;
36137;SDS011;67787;50.074;21.904;2023-04-10T10:46:22;14.50;;;5.90;;
36137;SDS011;67787;50.074;21.904;2023-04-10T10:48:56;18.70;;;5.50;;
36137;SDS011;67787;50.074;21.904;2023-04-10T10:51:41;14.90;;;5.50;;
36137;SDS011;67787;50.074;21.904;2023-04-10T10:54:31;13.20;;;5.50;;
36137;SDS011;67787;50.074;21.904;2023-04-10T10:57:01;13.60;;;5.50;;
36137;SDS011;67787;50.074;21.904;2023-04-10T11:00:05;14.30;;;5.60;;
36137;SDS011;67787;50.074;21.904;2023-04-10T11:02:26;12.20;;;5.10;;
36137;SDS011;67787;50.074;21.904;2023-04-10T11:04:54;23.10;;;6.10;;
36137;SDS011;67787;50.074;21.904;2023-04-10T11:07:22;13.00;;;5.50;;
36137;SDS011;67787;50.074;21.904;2023-04-10T11:13:36;15.30;;;4.80;;
36137;SDS011;67787;50.074;21.904;2023-04-10T11:19:07;17.10;;;6.30;;
36137;SDS011;67787;50.074;21.904;2023-04-10T11:22:05;12.60;;;6.30;;
36137;SDS011;67787;50.074;21.904;2023-04-10T11:24:56;17.70;;;5.60;;
36137;SDS011;67787;50.074;21.904;2023-04-10T11:27:46;14.50;;;5.80;;
36137;SDS011;67787;50.074;21.904;2023-04-10T11:30:29;17.60;;;6.10;;
36137;SDS011;67787;50.074;21.904;2023-04-10T11:32:59;18.90;;;6.50;;
36137;SDS011;67787;50.074;21.904;2023-04-10T11:35:29;17.10;;;6.90;;
36137;SDS011;67787;50.074;21.904;2023-04-10T11:38:08;15.40;;;6.10;;
36137;SDS011;67787;50.074;21.904;2023-04-10T11:40:54;14.60;;;6.50;;
36137;SDS011;67787;50.074;21.904;2023-04-10T11:43:23;18.70;;;8.30;;
36137;SDS011;67787;50.074;21.904;2023-04-10T11:45:57;28.10;;;15.40;;
36137;SDS011;67787;50.074;21.904;2023-04-10T11:48:35;30.70;;;16.70;;
36137;SDS011;67787;50.074;21.904;2023-04-10T11:51:07;24.10;;;12.10;;
36137;SDS011;67787;50.074;21.904;2023-04-10T11:53:37;23.80;;;9.50;;
36137;SDS011;67787;50.074;21.904;2023-04-10T11:56:13;23.80;;;12.70;;
36137;SDS011;67787;50.074;21.904;2023-04-10T11:58:43;18.30;;;8.30;;
36137;SDS011;67787;50.074;21.904;2023-04-10T12:01:11;17.60;;;7.40;;
36137;SDS011;67787;50.074;21.904;2023-04-10T12:03:41;18.30;;;6.90;;
36137;SDS011;67787;50.074;21.904;2023-04-10T12:06:11;15.40;;;6.80;;
36137;SDS011;67787;50.074;21.904;2023-04-10T12:08:41;23.70;;;12.30;;
36137;SDS011;67787;50.074;21.904;2023-04-10T12:11:13;16.70;;;5.70;;
36137;SDS011;67787;50.074;21.904;2023-04-10T12:13:44;14.00;;;4.30;;
36137;SDS011;67787;50.074;21.904;2023-04-10T12:16:13;11.90;;;4.70;;
36137;SDS011;67787;50.074;21.904;2023-04-10T12:18:41;11.20;;;4.60;;
36137;SDS011;67787;50.074;21.904;2023-04-10T12:21:09;11.70;;;5.20;;
36137;SDS011;67787;50.074;21.904;2023-04-10T12:23:38;12.30;;;4.50;;
36137;SDS011;67787;50.074;21.904;2023-04-10T12:26:13;10.70;;;4.50;;
36137;SDS011;67787;50.074;21.904;2023-04-10T12:29:03;12.40;;;5.40;;
36137;SDS011;67787;50.074;21.904;2023-04-10T12:31:33;9.40;;;4.30;;
36137;SDS011;67787;50.074;21.904;2023-04-10T12:34:03;9.20;;;4.40;;
36137;SDS011;67787;50.074;21.904;2023-04-10T12:36:35;11.00;;;4.60;;
36137;SDS011;67787;50.074;21.904;2023-04-10T12:39:04;11.30;;;4.80;;
36137;SDS011;67787;50.074;21.904;2023-04-10T12:41:48;12.70;;;5.00;;
36137;SDS011;67787;50.074;21.904;2023-04-10T12:44:16;13.70;;;5.50;;
36137;SDS011;67787;50.074;21.904;2023-04-10T12:46:46;16.00;;;5.40;;
36137;SDS011;67787;50.074;21.904;2023-04-10T12:49:14;11.60;;;5.20;;
36137;SDS011;67787;50.074;21.904;2023-04-10T12:51:50;14.40;;;5.10;;
36137;SDS011;67787;50.074;21.904;2023-04-10T12:54:28;11.80;;;5.10;;
36137;SDS011;67787;50.074;21.904;2023-04-10T12:56:59;11.70;;;4.60;;
36137;SDS011;67787;50.074;21.904;2023-04-10T12:59:28;9.90;;;4.50;;
36137;SDS011;67787;50.074;21.904;2023-04-10T13:01:57;9.80;;;4.70;;
36137;SDS011;67787;50.074;21.904;2023-04-10T13:04:28;12.60;;;4.80;;
36137;SDS011;67787;50.074;21.904;2023-04-10T13:06:58;11.50;;;5.00;;
36137;SDS011;67787;50.074;21.904;2023-04-10T13:09:26;11.90;;;5.30;;
36137;SDS011;67787;50.074;21.904;2023-04-10T13:11:54;12.10;;;4.90;;
36137;SDS011;67787;50.074;21.904;2023-04-10T13:14:24;14.00;;;5.40;;
36137;SDS011;67787;50.074;21.904;2023-04-10T13:16:52;12.60;;;5.30;;
36137;SDS011;67787;50.074;21.904;2023-04-10T13:19:23;14.80;;;5.40;;
36137;SDS011;67787;50.074;21.904;2023-04-10T13:21:51;11.90;;;5.30;;
36137;SDS011;67787;50.074;21.904;2023-04-10T13:24:20;12.80;;;5.20;;
36137;SDS011;67787;50.074;21.904;2023-04-10T13:26:48;12.00;;;5.10;;
36137;SDS011;67787;50.074;21.904;2023-04-10T13:29:16;10.10;;;5.00;;
36137;SDS011;67787;50.074;21.904;2023-04-10T13:31:44;9.10;;;4.50;;
36137;SDS011;67787;50.074;21.904;2023-04-10T13:34:13;7.20;;;4.10;;
36137;SDS011;67787;50.074;21.904;2023-04-10T13:36:41;12.20;;;4.40;;
36137;SDS011;67787;50.074;21.904;2023-04-10T13:39:09;13.40;;;4.50;;
36137;SDS011;67787;50.074;21.904;2023-04-10T13:41:37;9.30;;;4.40;;
36137;SDS011;67787;50.074;21.904;2023-04-10T13:44:05;9.10;;;4.40;;
36137;SDS011;67787;50.074;21.904;2023-04-10T13:46:33;12.70;;;5.30;;
36137;SDS011;67787;50.074;21.904;2023-04-10T13:49:01;8.20;;;4.00;;
36137;SDS011;67787;50.074;21.904;2023-04-10T13:51:29;10.80;;;4.80;;
36137;SDS011;67787;50.074;21.904;2023-04-10T13:53:57;9.80;;;4.20;;
36137;SDS011;67787;50.074;21.904;2023-04-10T13:56:26;8.50;;;4.30;;
36137;SDS011;67787;50.074;21.904;2023-04-10T13:58:56;11.20;;;4.40;;
36137;SDS011;67787;50.074;21.904;2023-04-10T14:01:24;9.00;;;4.40;;
36137;SDS011;67787;50.074;21.904;2023-04-10T14:03:53;11.00;;;4.50;;
36137;SDS011;67787;50.074;21.904;2023-04-10T14:06:21;12.50;;;5.10;;
36137;SDS011;67787;50.074;21.904;2023-04-10T14:08:48;13.30;;;5.30;;
36137;SDS011;67787;50.074;21.904;2023-04-10T14:11:17;6.90;;;3.30;;
36137;SDS011;67787;50.074;21.904;2023-04-10T14:13:44;4.70;;;3.00;;
36137;SDS011;67787;50.074;21.904;2023-04-10T14:16:13;7.60;;;3.50;;
36137;SDS011;67787;50.074;21.904;2023-04-10T14:18:41;12.40;;;4.30;;
36137;SDS011;67787;50.074;21.904;2023-04-10T14:21:09;10.60;;;4.30;;
36137;SDS011;67787;50.074;21.904;2023-04-10T14:23:37;12.50;;;4.20;;
36137;SDS011;67787;50.074;21.904;2023-04-10T14:26:05;10.70;;;4.80;;
36137;SDS011;67787;50.074;21.904;2023-04-10T14:28:33;10.80;;;4.20;;
36137;SDS011;67787;50.074;21.904;2023-04-10T14:31:02;11.30;;;5.00;;
36137;SDS011;67787;50.074;21.904;2023-04-10T14:33:31;13.10;;;5.00;;
36137;SDS011;67787;50.074;21.904;2023-04-10T14:35:58;12.00;;;5.00;;
36137;SDS011;67787;50.074;21.904;2023-04-10T14:38:26;10.50;;;4.90;;
36137;SDS011;67787;50.074;21.904;2023-04-10T14:40:55;13.60;;;5.50;;
36137;SDS011;67787;50.074;21.904;2023-04-10T14:43:22;14.00;;;5.90;;
36137;SDS011;67787;50.074;21.904;2023-04-10T14:45:50;16.50;;;6.20;;
36137;SDS011;67787;50.074;21.904;2023-04-10T14:48:18;12.80;;;5.30;;
36137;SDS011;67787;50.074;21.904;2023-04-10T14:50:47;16.40;;;5.20;;
36137;SDS011;67787;50.074;21.904;2023-04-10T14:53:16;15.70;;;5.80;;
36137;SDS011;67787;50.074;21.904;2023-04-10T14:55:44;14.70;;;5.50;;
36137;SDS011;67787;50.074;21.904;2023-04-10T14:58:13;16.60;;;7.80;;
36137;SDS011;67787;50.074;21.904;2023-04-10T15:00:40;14.00;;;5.40;;
36137;SDS011;67787;50.074;21.904;2023-04-10T15:03:10;12.70;;;4.90;;